Time;durP1;ratioP1;P1;durP2;ratioP2;P2;SDS_P1;SDS_P2;PMS_P1;PMS_P2;Temp;Humidity;BMP_temperature;BMP_pressure;BME280_temperature;BME280_humidity;BME280_pressure;Samples;Min_cycle;Max_cycle;Signal;HPM_P1;HPM_P2
2023/05/24 00:01:36;;;;;;;16.90;3.37;;;10.80;99.90;;;;;;7295008;19;20194;-79
2023/05/24 00:04:02;;;;;;;16.93;3.00;;;10.70;99.90;;;;;;7285795;19;20188;-79
2023/05/24 00:06:28;;;;;;;18.60;3.67;;;10.70;99.90;;;;;;7282693;19;20205;-79
2023/05/24 00:08:54;;;;;;;17.90;3.40;;;10.70;99.90;;;;;;7284973;19;20194;-80
2023/05/24 00:11:21;;;;;;;19.93;3.77;;;10.70;99.90;;;;;;7282929;19;20195;-80
2023/05/24 00:13:47;;;;;;;18.73;3.40;;;10.70;99.90;;;;;;7283560;19;20193;-79
2023/05/24 00:16:13;;;;;;;16.80;3.30;;;10.70;99.90;;;;;;7284171;19;20215;-79
2023/05/24 00:18:40;;;;;;;18.80;3.33;;;10.70;99.90;;;;;;7302765;19;20189;-79
2023/05/24 00:21:10;;;;;;;17.90;3.17;;;10.60;99.90;;;;;;7299407;19;20189;-79
2023/05/24 00:23:37;;;;;;;16.10;3.07;;;10.50;99.90;;;;;;7285655;19;20183;-80
2023/05/24 00:26:03;;;;;;;13.37;3.27;;;10.50;99.90;;;;;;7280758;19;21027;-79
2023/05/24 00:28:32;;;;;;;17.57;3.37;;;10.50;99.90;;;;;;7281803;19;20196;-79
2023/05/24 00:30:58;;;;;;;19.53;3.67;;;10.40;99.90;;;;;;7282557;19;20244;-79
2023/05/24 00:33:24;;;;;;;19.43;3.83;;;10.40;99.90;;;;;;7284231;19;20208;-79
2023/05/24 00:35:57;;;;;;;17.57;3.37;;;10.40;99.90;;;;;;7283973;19;20546;-79
2023/05/24 00:38:24;;;;;;;14.77;3.70;;;10.40;99.90;;;;;;7282359;19;20197;-79
2023/05/24 00:40:52;;;;;;;14.83;3.33;;;10.40;99.90;;;;;;7283863;19;20641;-79
2023/05/24 00:43:18;;;;;;;16.77;3.43;;;10.30;99.90;;;;;;7281923;19;20238;-79
2023/05/24 00:45:44;;;;;;;15.60;3.43;;;10.30;99.90;;;;;;7283242;19;20632;-79
2023/05/24 00:48:11;;;;;;;19.83;3.50;;;10.20;99.90;;;;;;7296641;19;20235;-79
2023/05/24 00:50:40;;;;;;;13.77;3.20;;;10.30;99.90;;;;;;7305239;19;20185;-79
2023/05/24 00:53:08;;;;;;;16.97;3.67;;;10.20;99.90;;;;;;7282970;19;20190;-79
2023/05/24 00:55:35;;;;;;;19.43;3.30;;;10.20;99.90;;;;;;7282758;19;20189;-79
2023/05/24 00:58:02;;;;;;;20.77;3.90;;;10.10;99.90;;;;;;7282431;19;20195;-79
2023/05/24 01:00:28;;;;;;;14.93;3.40;;;10.10;99.90;;;;;;7282294;19;20197;-79
2023/05/24 01:02:54;;;;;;;15.30;3.43;;;10.10;99.90;;;;;;7282655;19;20217;-79
2023/05/24 01:05:22;;;;;;;15.20;3.70;;;10.10;99.90;;;;;;7281819;19;20566;-79
2023/05/24 01:08:02;;;;;;;18.37;3.30;;;10.10;99.90;;;;;;7281244;19;20194;-79
2023/05/24 01:10:55;;;;;;;18.67;4.20;;;10.20;99.90;;;;;;7281533;19;20227;-79
2023/05/24 01:13:44;;;;;;;14.83;3.50;;;10.30;99.90;;;;;;7178771;19;2004553;-79
2023/05/24 01:16:16;;;;;;;13.77;3.17;;;10.30;99.90;;;;;;7271979;19;20263;-79
2023/05/24 01:19:21;;;;;;;14.60;3.30;;;10.30;99.90;;;;;;7281436;19;20717;-79
2023/05/24 01:22:12;;;;;;;14.53;3.30;;;10.20;99.90;;;;;;7178754;19;2004580;-79
2023/05/24 01:25:02;;;;;;;16.67;3.73;;;10.10;99.90;;;;;;7282449;19;20199;-79
2023/05/24 01:27:32;;;;;;;14.07;3.23;;;10.10;99.90;;;;;;7179381;19;2004473;-79
2023/05/24 01:29:59;;;;;;;20.40;3.70;;;10.10;99.90;;;;;;7281317;19;20193;-79
2023/05/24 01:32:26;;;;;;;16.07;3.60;;;10.10;99.90;;;;;;7288704;19;20190;-79
2023/05/24 01:34:51;;;;;;;24.73;4.23;;;10.10;99.90;;;;;;7289361;19;20185;-80
2023/05/24 01:37:17;;;;;;;18.40;4.03;;;10.20;99.90;;;;;;7288262;19;20210;-79
2023/05/24 01:39:43;;;;;;;22.03;3.97;;;10.20;99.90;;;;;;7287843;19;20495;-79
2023/05/24 01:42:26;;;;;;;18.13;3.93;;;10.20;99.90;;;;;;7311800;19;20215;-79
2023/05/24 01:45:06;;;;;;;17.20;4.13;;;10.20;99.90;;;;;;7185937;19;2004466;-79
2023/05/24 01:47:35;;;;;;;17.50;4.33;;;10.20;99.90;;;;;;7354517;19;20185;-79
2023/05/24 01:50:31;;;;;;;21.60;4.00;;;10.10;99.90;;;;;;7402175;19;20161;-80
2023/05/24 01:53:05;;;;;;;19.13;3.67;;;10.00;99.90;;;;;;7401566;19;20178;-79
2023/05/24 01:55:33;;;;;;;16.97;3.83;;;10.00;99.90;;;;;;7400478;19;20507;-79
2023/05/24 01:58:02;;;;;;;18.70;3.60;;;9.90;99.90;;;;;;7400344;19;20153;-79
2023/05/24 02:00:30;;;;;;;19.43;4.67;;;9.90;99.90;;;;;;7401592;19;20146;-79
2023/05/24 02:02:57;;;;;;;20.57;3.93;;;9.90;99.90;;;;;;7402905;19;20151;-80
2023/05/24 02:05:23;;;;;;;18.07;4.27;;;9.90;99.90;;;;;;7377226;19;20148;-78
2023/05/24 02:07:48;;;;;;;19.40;4.47;;;9.80;99.90;;;;;;7287258;19;20264;-80
2023/05/24 02:10:14;;;;;;;13.70;3.83;;;9.70;99.90;;;;;;7288946;19;20203;-79
2023/05/24 02:12:40;;;;;;;17.73;4.43;;;9.60;99.90;;;;;;7302964;19;20213;-79
2023/05/24 02:15:06;;;;;;;15.77;3.97;;;9.70;99.90;;;;;;7299243;19;20225;-80
2023/05/24 02:17:32;;;;;;;13.00;3.47;;;9.60;99.90;;;;;;7285991;19;20664;-80
2023/05/24 02:19:59;;;;;;;20.30;4.23;;;9.50;99.90;;;;;;7287515;19;20189;-79
2023/05/24 02:22:25;;;;;;;18.40;4.07;;;9.50;99.90;;;;;;7286581;19;20205;-79
2023/05/24 02:24:52;;;;;;;17.47;4.27;;;9.50;99.90;;;;;;7286723;19;20290;-79
2023/05/24 02:27:18;;;;;;;16.30;4.20;;;9.50;99.90;;;;;;7286735;19;20188;-79
2023/05/24 02:29:44;;;;;;;14.63;4.63;;;9.40;99.90;;;;;;7287939;19;20633;-79
2023/05/24 02:32:10;;;;;;;15.50;4.00;;;9.50;99.90;;;;;;7307637;19;20575;-79
2023/05/24 02:34:35;;;;;;;16.97;4.20;;;9.40;99.90;;;;;;7295743;19;20192;-79
2023/05/24 02:37:01;;;;;;;15.17;4.37;;;9.20;99.90;;;;;;7287144;19;20196;-80
2023/05/24 02:39:27;;;;;;;17.13;3.87;;;9.30;99.90;;;;;;7286066;19;20195;-79
2023/05/24 02:41:52;;;;;;;15.00;4.37;;;9.20;99.90;;;;;;7285765;19;20200;-79
2023/05/24 02:44:18;;;;;;;18.30;4.23;;;9.20;99.90;;;;;;7285766;19;20185;-79
2023/05/24 02:46:44;;;;;;;15.53;4.00;;;9.20;99.90;;;;;;7284602;19;20282;-81
2023/05/24 02:49:10;;;;;;;15.80;3.80;;;9.20;99.90;;;;;;7304682;19;20205;-79
2023/05/24 02:51:36;;;;;;;18.60;3.90;;;9.10;99.90;;;;;;7299780;19;20196;-80
2023/05/24 02:54:02;;;;;;;19.97;4.43;;;9.00;99.90;;;;;;7284249;19;20203;-79
2023/05/24 02:56:28;;;;;;;16.03;4.17;;;8.90;99.90;;;;;;7283538;19;20200;-79
2023/05/24 02:58:55;;;;;;;15.73;4.00;;;8.90;99.90;;;;;;7283355;19;20651;-79
2023/05/24 03:01:21;;;;;;;16.47;4.17;;;8.80;99.90;;;;;;7282861;19;20200;-79
2023/05/24 03:03:48;;;;;;;15.70;4.10;;;8.80;99.90;;;;;;7282624;19;20214;-79
2023/05/24 03:06:14;;;;;;;15.53;4.20;;;8.80;99.90;;;;;;7280476;19;20188;-79
2023/05/24 03:08:40;;;;;;;19.67;4.33;;;8.80;99.90;;;;;;7297834;19;20292;-79
2023/05/24 03:11:06;;;;;;;16.43;3.97;;;8.80;99.90;;;;;;7298705;19;20189;-79
2023/05/24 03:13:33;;;;;;;15.17;3.47;;;8.80;99.90;;;;;;7285065;19;20648;-79
2023/05/24 03:15:59;;;;;;;24.97;4.10;;;8.60;99.90;;;;;;7284392;19;20208;-79
2023/05/24 03:18:25;;;;;;;19.37;4.17;;;8.60;99.90;;;;;;7286353;19;20547;-80
2023/05/24 03:20:51;;;;;;;16.13;3.77;;;8.50;99.90;;;;;;7285075;19;20184;-79
2023/05/24 03:23:17;;;;;;;16.90;4.23;;;8.50;99.90;;;;;;7285150;19;20193;-79
2023/05/24 03:25:43;;;;;;;19.77;4.40;;;8.30;99.90;;;;;;7282793;19;20272;-79
2023/05/24 03:28:09;;;;;;;18.53;4.30;;;8.30;99.90;;;;;;7307701;19;20194;-79
2023/05/24 03:30:35;;;;;;;12.80;3.90;;;8.20;99.90;;;;;;7285128;19;20191;-79
2023/05/24 03:33:01;;;;;;;18.73;4.30;;;8.30;99.90;;;;;;7284014;19;20562;-79
2023/05/24 03:35:27;;;;;;;16.17;4.23;;;8.30;99.90;;;;;;7284399;19;20199;-79
2023/05/24 03:37:52;;;;;;;16.87;4.37;;;8.30;99.90;;;;;;7284706;19;20188;-79
2023/05/24 03:40:19;;;;;;;14.90;4.40;;;8.40;99.90;;;;;;7283648;19;20197;-79
2023/05/24 03:42:56;;;;;;;15.20;4.13;;;8.50;99.90;;;;;;7285771;19;20188;-79
2023/05/24 03:45:35;;;;;;;15.37;4.57;;;8.60;99.90;;;;;;7283520;19;20202;-79
2023/05/24 03:48:01;;;;;;;16.37;4.60;;;8.60;99.90;;;;;;7285270;19;20181;-79
2023/05/24 03:50:26;;;;;;;17.70;4.90;;;8.60;99.90;;;;;;7284370;19;20213;-80
2023/05/24 03:52:52;;;;;;;18.17;4.47;;;8.60;99.90;;;;;;7284366;19;20189;-79
2023/05/24 03:55:18;;;;;;;17.77;4.67;;;8.70;99.90;;;;;;7282985;19;20268;-79
2023/05/24 03:57:43;;;;;;;18.37;4.50;;;8.70;99.90;;;;;;7284096;19;20183;-79
2023/05/24 04:00:11;;;;;;;18.70;4.83;;;8.70;99.90;;;;;;7304625;19;20209;-79
2023/05/24 04:02:39;;;;;;;17.90;4.33;;;8.70;99.90;;;;;;7284293;19;20193;-79
2023/05/24 04:05:09;;;;;;;17.43;5.17;;;8.80;99.90;;;;;;7284202;19;20215;-79
2023/05/24 04:07:38;;;;;;;13.60;4.20;;;8.70;99.90;;;;;;7283643;19;20186;-79
2023/05/24 04:10:06;;;;;;;17.93;4.77;;;8.70;99.90;;;;;;7284229;19;20188;-79
2023/05/24 04:12:32;;;;;;;17.00;4.57;;;8.60;99.90;;;;;;7285093;19;20188;-79
2023/05/24 04:14:59;;;;;;;16.30;5.23;;;8.70;99.90;;;;;;7283449;19;20191;-79
2023/05/24 04:17:31;;;;;;;18.27;4.97;;;8.60;99.90;;;;;;7284595;19;20185;-79
2023/05/24 04:19:57;;;;;;;16.97;4.90;;;8.80;99.90;;;;;;7283493;19;20851;-79
2023/05/24 04:22:24;;;;;;;17.33;5.00;;;8.90;99.90;;;;;;7283715;19;20196;-79
2023/05/24 04:24:49;;;;;;;19.57;4.90;;;8.90;99.90;;;;;;7283192;19;20189;-79
2023/05/24 04:27:16;;;;;;;15.60;4.30;;;9.00;99.90;;;;;;7282886;19;20200;-79
2023/05/24 04:29:45;;;;;;;18.80;4.43;;;9.10;99.90;;;;;;7284462;19;20188;-79
2023/05/24 04:32:13;;;;;;;15.37;4.00;;;9.10;99.90;;;;;;7300389;19;20188;-79
2023/05/24 04:34:41;;;;;;;12.00;4.03;;;9.00;99.90;;;;;;7305580;19;20594;-79
2023/05/24 04:37:07;;;;;;;17.70;4.33;;;9.10;99.90;;;;;;7283935;19;20217;-80
2023/05/24 04:39:33;;;;;;;14.80;4.63;;;9.20;99.90;;;;;;7283668;19;20200;-80
2023/05/24 04:41:59;;;;;;;17.63;4.40;;;9.50;99.90;;;;;;7283455;19;20189;-79
2023/05/24 04:44:26;;;;;;;17.57;4.00;;;10.50;99.90;;;;;;7284217;19;20197;-79
2023/05/24 04:46:52;;;;;;;15.67;3.90;;;11.60;99.90;;;;;;7282756;19;20193;-79
2023/05/24 04:49:18;;;;;;;15.90;3.53;;;12.60;99.90;;;;;;7284433;19;20195;-79
2023/05/24 04:51:45;;;;;;;14.60;4.00;;;13.60;99.90;;;;;;7282523;19;20190;-79
2023/05/24 04:54:11;;;;;;;12.97;3.53;;;14.60;99.90;;;;;;7297233;19;20202;-78
2023/05/24 04:56:37;;;;;;;15.33;3.67;;;15.50;99.90;;;;;;7293649;19;20185;-80
2023/05/24 04:59:12;;;;;;;12.93;3.50;;;16.40;99.90;;;;;;7282192;19;20685;-79
2023/05/24 05:01:38;;;;;;;12.20;3.10;;;17.00;99.90;;;;;;7283872;19;20197;-79
2023/05/24 05:04:04;;;;;;;13.27;3.60;;;17.50;99.90;;;;;;7282482;19;20216;-79
2023/05/24 05:06:32;;;;;;;13.30;3.70;;;18.10;99.90;;;;;;7288789;19;21377;-80
2023/05/24 05:08:58;;;;;;;15.97;3.50;;;18.40;99.90;;;;;;7286920;19;20246;-79
2023/05/24 05:11:24;;;;;;;15.50;4.00;;;18.90;99.90;;;;;;7290098;19;20607;-80
2023/05/24 05:13:50;;;;;;;12.50;4.10;;;19.30;99.90;;;;;;7288363;19;20236;-79
2023/05/24 05:16:16;;;;;;;14.00;3.73;;;19.70;99.90;;;;;;7289224;19;20550;-80
2023/05/24 05:18:42;;;;;;;12.63;3.43;;;20.10;99.90;;;;;;7288833;19;21008;-76
2023/05/24 05:21:08;;;;;;;14.50;3.77;;;21.00;99.90;;;;;;7309929;19;20284;-77
2023/05/24 05:23:35;;;;;;;12.63;4.03;;;21.60;99.90;;;;;;7285996;19;20174;-77
2023/05/24 05:26:00;;;;;;;18.07;4.50;;;22.20;99.90;;;;;;7286106;19;20227;-77
2023/05/24 05:28:26;;;;;;;15.93;4.00;;;23.00;99.90;;;;;;7288624;19;20185;-80
2023/05/24 05:30:52;;;;;;;12.70;4.17;;;23.40;99.90;;;;;;7287289;19;20190;-79
2023/05/24 05:33:18;;;;;;;15.93;4.00;;;23.80;99.90;;;;;;7285878;19;20687;-78
2023/05/24 05:35:43;;;;;;;14.67;4.13;;;24.30;99.90;;;;;;7286359;19;20184;-78
2023/05/24 05:38:09;;;;;;;15.50;4.10;;;24.50;99.90;;;;;;7309955;19;20255;-78
2023/05/24 05:40:35;;;;;;;14.33;4.30;;;24.60;99.30;;;;;;7287661;19;20200;-78
2023/05/24 05:43:00;;;;;;;16.33;4.17;;;24.90;98.60;;;;;;7287368;19;20894;-79
2023/05/24 05:45:26;;;;;;;13.77;3.83;;;25.30;97.50;;;;;;7288372;19;20230;-78
2023/05/24 05:47:52;;;;;;;16.17;4.23;;;25.70;96.30;;;;;;7283493;19;20673;-76
2023/05/24 05:50:17;;;;;;;14.53;4.00;;;25.90;94.00;;;;;;7284351;19;20177;-77
2023/05/24 05:52:43;;;;;;;16.77;4.53;;;25.60;94.00;;;;;;7283863;19;20184;-76
2023/05/24 05:55:11;;;;;;;14.53;4.60;;;25.20;93.30;;;;;;7306809;19;20196;-77
2023/05/24 05:57:36;;;;;;;14.47;4.40;;;24.90;93.40;;;;;;7285266;19;20190;-77
2023/05/24 06:00:02;;;;;;;17.10;4.60;;;24.60;94.40;;;;;;7284326;19;20268;-76
2023/05/24 06:02:37;;;;;;;16.30;4.10;;;24.70;94.90;;;;;;7284401;19;20188;-77
2023/05/24 06:05:03;;;;;;;17.40;4.53;;;25.00;95.00;;;;;;7282604;19;20208;-76
2023/05/24 06:07:29;;;;;;;19.27;4.87;;;25.80;93.70;;;;;;7283350;19;20197;-76
2023/05/24 06:09:55;;;;;;;21.97;5.03;;;26.20;92.10;;;;;;7284561;19;20607;-76
2023/05/24 06:12:21;;;;;;;21.60;5.20;;;26.50;91.10;;;;;;7283703;19;20201;-77
2023/05/24 06:14:49;;;;;;;20.80;5.10;;;27.00;90.50;;;;;;7283704;19;20215;-77
2023/05/24 06:17:15;;;;;;;21.93;4.47;;;26.70;90.10;;;;;;7283008;19;20185;-77
2023/05/24 06:19:42;;;;;;;20.70;4.72;;;26.60;89.60;;;;;;7299484;19;20259;-77
2023/05/24 06:22:08;;;;;;;22.73;4.57;;;26.70;89.00;;;;;;7306072;19;20336;-77
2023/05/24 06:24:34;;;;;;;25.07;5.80;;;26.30;89.30;;;;;;7282467;19;20184;-78
2023/05/24 06:27:00;;;;;;;24.17;5.43;;;25.20;90.10;;;;;;7282443;19;20679;-79
2023/05/24 06:29:26;;;;;;;24.73;5.27;;;24.30;91.30;;;;;;7284551;19;20193;-78
2023/05/24 06:31:52;;;;;;;21.60;5.20;;;23.40;93.30;;;;;;7283829;19;20200;-78
2023/05/24 06:34:20;;;;;;;26.53;5.00;;;23.40;94.60;;;;;;7284559;19;20193;-78
2023/05/24 06:36:47;;;;;;;22.80;5.60;;;24.00;94.90;;;;;;7285042;19;20192;-78
2023/05/24 06:39:13;;;;;;;22.53;5.20;;;24.90;93.00;;;;;;7283086;19;20189;-78
2023/05/24 06:41:41;;;;;;;21.63;5.25;;;25.20;92.40;;;;;;7307860;19;20260;-77
2023/05/24 06:44:06;;;;;;;18.50;4.97;;;26.00;91.10;;;;;;7284596;19;20660;-78
2023/05/24 06:46:33;;;;;;;20.15;4.90;;;25.80;90.60;;;;;;7283523;19;21048;-78
2023/05/24 06:48:59;;;;;;;18.52;5.10;;;26.00;90.60;;;;;;7283678;19;20196;-77
2023/05/24 06:51:25;;;;;;;16.10;4.68;;;25.70;90.80;;;;;;7283219;19;20196;-78
2023/05/24 06:53:51;;;;;;;21.30;5.13;;;25.60;90.90;;;;;;7283735;19;20592;-78
2023/05/24 06:56:17;;;;;;;17.98;4.95;;;25.80;90.70;;;;;;7282675;19;20192;-77
2023/05/24 06:58:43;;;;;;;20.52;5.18;;;26.60;89.90;;;;;;7282436;19;20252;-77
2023/05/24 07:01:09;;;;;;;17.00;5.28;;;26.60;86.50;;;;;;7303766;19;20217;-77
2023/05/24 07:03:36;;;;;;;20.70;4.65;;;26.40;85.50;;;;;;7283823;19;20688;-78
2023/05/24 07:06:02;;;;;;;20.13;5.10;;;26.10;84.30;;;;;;7282793;19;20389;-77
2023/05/24 07:08:28;;;;;;;17.95;4.07;;;25.40;86.20;;;;;;7283423;19;20531;-78
2023/05/24 07:10:54;;;;;;;19.13;4.35;;;25.90;86.50;;;;;;7282513;19;20256;-78
2023/05/24 07:13:21;;;;;;;16.30;4.78;;;26.60;83.90;;;;;;7282773;19;20181;-78
2023/05/24 07:15:46;;;;;;;17.92;4.30;;;27.50;83.20;;;;;;7282525;19;20181;-78
2023/05/24 07:18:13;;;;;;;15.35;3.90;;;28.40;80.20;;;;;;7286710;19;20202;-77
2023/05/24 07:20:39;;;;;;;19.45;4.88;;;28.00;78.30;;;;;;7303820;19;20271;-77
2023/05/24 07:23:05;;;;;;;20.10;5.30;;;29.20;77.30;;;;;;7283893;19;20180;-78
2023/05/24 07:25:32;;;;;;;22.23;5.93;;;28.30;76.60;;;;;;7281197;19;20205;-78
2023/05/24 07:27:59;;;;;;;17.48;5.30;;;27.70;76.90;;;;;;7279691;19;20661;-78
2023/05/24 07:30:26;;;;;;;21.90;6.32;;;27.60;77.40;;;;;;7281153;19;20203;-77
2023/05/24 07:32:51;;;;;;;23.55;6.13;;;26.80;78.00;;;;;;7282907;19;20185;-77
2023/05/24 07:35:17;;;;;;;17.38;5.82;;;25.80;80.30;;;;;;7282792;19;20248;-77
2023/05/24 07:37:43;;;;;;;22.10;5.72;;;24.90;83.30;;;;;;7282426;19;20192;-77
2023/05/24 07:40:10;;;;;;;21.90;5.67;;;24.10;85.10;;;;;;7303048;19;20188;-78
2023/05/24 07:42:37;;;;;;;22.63;6.27;;;23.60;88.10;;;;;;7284305;19;20249;-78
2023/05/24 07:45:04;;;;;;;21.00;5.80;;;23.20;90.10;;;;;;7282051;19;20207;-77
2023/05/24 07:47:30;;;;;;;24.93;5.50;;;22.50;90.20;;;;;;7283139;19;20192;-78
2023/05/24 07:49:55;;;;;;;20.90;5.80;;;22.60;90.70;;;;;;7283555;19;20573;-78
2023/05/24 07:52:22;;;;;;;17.27;4.77;;;22.90;92.30;;;;;;7280924;19;20193;-78
2023/05/24 07:54:48;;;;;;;17.73;5.07;;;23.00;91.90;;;;;;7281519;19;21001;-78
2023/05/24 07:57:13;;;;;;;19.03;4.53;;;22.40;89.90;;;;;;7282365;19;20216;-77
2023/05/24 07:59:39;;;;;;;20.13;4.60;;;22.20;92.00;;;;;;7303287;19;20295;-78
2023/05/24 08:02:07;;;;;;;22.73;5.57;;;22.60;90.90;;;;;;7282644;19;20277;-77
2023/05/24 08:04:32;;;;;;;22.00;4.73;;;22.80;89.70;;;;;;7280698;19;20193;-78
2023/05/24 08:07:00;;;;;;;20.33;4.73;;;23.70;88.60;;;;;;7279653;19;20213;-79
2023/05/24 08:09:28;;;;;;;15.27;3.63;;;25.20;88.60;;;;;;7282543;19;20195;-77
2023/05/24 08:11:55;;;;;;;17.67;4.35;;;26.00;84.10;;;;;;7280607;19;20201;-77
2023/05/24 08:14:21;;;;;;;17.38;4.20;;;28.20;78.50;;;;;;7281506;19;20192;-78
2023/05/24 08:16:47;;;;;;;19.25;4.32;;;29.00;75.50;;;;;;7281752;19;20632;-78
2023/05/24 08:19:12;;;;;;;17.10;4.35;;;29.20;72.00;;;;;;7285947;19;20288;-77
2023/05/24 08:21:38;;;;;;;15.27;4.32;;;29.00;71.00;;;;;;7302857;19;20192;-78
2023/05/24 08:24:04;;;;;;;15.05;4.20;;;28.50;70.40;;;;;;7280416;19;20280;-78
2023/05/24 08:26:30;;;;;;;16.45;5.10;;;28.10;69.40;;;;;;7279487;19;20529;-78
2023/05/24 08:28:56;;;;;;;16.88;4.45;;;27.60;69.70;;;;;;7280646;19;20200;-78
2023/05/24 08:31:21;;;;;;;19.17;4.93;;;27.20;73.20;;;;;;7280037;19;20212;-77
2023/05/24 08:33:49;;;;;;;18.70;5.40;;;26.90;74.20;;;;;;7278546;19;20185;-77
2023/05/24 08:36:16;;;;;;;19.48;5.75;;;26.10;73.40;;;;;;7280450;19;20677;-77
2023/05/24 08:38:41;;;;;;;18.10;5.72;;;25.60;73.60;;;;;;7293885;19;20193;-77
2023/05/24 08:41:10;;;;;;;17.00;5.53;;;25.30;74.30;;;;;;7300799;19;20212;-78
2023/05/24 08:43:38;;;;;;;19.17;5.90;;;25.20;77.10;;;;;;7286142;19;20568;-78
2023/05/24 08:46:04;;;;;;;16.73;5.82;;;24.80;74.10;;;;;;7287552;19;20722;-78
2023/05/24 08:48:30;;;;;;;20.88;6.63;;;25.30;73.70;;;;;;7287898;19;20188;-78
2023/05/24 08:50:57;;;;;;;22.48;6.70;;;24.90;76.70;;;;;;7285705;19;20188;-77
2023/05/24 08:53:23;;;;;;;19.63;6.93;;;24.70;75.50;;;;;;7286902;19;20205;-78
2023/05/24 08:55:52;;;;;;;21.98;6.55;;;24.40;75.80;;;;;;7286429;19;20200;-78
2023/05/24 08:58:18;;;;;;;20.30;6.82;;;24.40;77.80;;;;;;7285926;19;20189;-78
2023/05/24 09:00:45;;;;;;;24.40;6.77;;;24.30;76.70;;;;;;7284594;19;20193;-77
2023/05/24 09:03:11;;;;;;;13.33;4.67;;;24.10;78.00;;;;;;7308203;19;20189;-77
2023/05/24 09:05:40;;;;;;;16.53;6.07;;;23.60;77.20;;;;;;7287168;19;20370;-78
2023/05/24 09:08:06;;;;;;;18.37;4.53;;;24.60;74.50;;;;;;7284519;19;20185;-78
2023/05/24 09:10:33;;;;;;;19.90;5.22;;;27.30;71.30;;;;;;7286309;19;20182;-77
2023/05/24 09:13:01;;;;;;;17.58;5.85;;;27.70;70.00;;;;;;7286732;19;20653;-78
2023/05/24 09:15:28;;;;;;;17.88;5.45;;;28.40;68.70;;;;;;7285845;19;20213;-78
2023/05/24 09:17:54;;;;;;;18.33;6.00;;;28.40;68.40;;;;;;7286687;19;20987;-78
2023/05/24 09:20:20;;;;;;;19.58;5.30;;;28.40;70.00;;;;;;7286876;19;20193;-78
2023/05/24 09:22:51;;;;;;;14.60;4.88;;;28.50;67.00;;;;;;7285889;19;20205;-78
2023/05/24 09:25:19;;;;;;;14.77;5.13;;;29.00;63.70;;;;;;7285655;19;20196;-77
2023/05/24 09:27:49;;;;;;;15.68;4.97;;;28.60;65.10;;;;;;7287358;19;20221;-78
2023/05/24 09:30:15;;;;;;;14.63;5.15;;;28.10;64.20;;;;;;7285568;19;20213;-78
2023/05/24 09:32:57;;;;;;;15.25;4.85;;;27.10;65.60;;;;;;7306526;19;20188;-78
2023/05/24 09:35:23;;;;;;;16.30;5.80;;;26.10;68.70;;;;;;7181961;19;2004713;-77
2023/05/24 09:37:49;;;;;;;17.50;5.22;;;25.30;72.50;;;;;;7284057;19;20189;-77
2023/05/24 09:40:19;;;;;;;18.00;5.78;;;24.90;72.10;;;;;;7282429;19;20202;-77
2023/05/24 09:42:45;;;;;;;20.08;5.97;;;25.10;71.60;;;;;;7285921;19;20201;-77
2023/05/24 09:45:11;;;;;;;24.17;6.35;;;25.80;73.00;;;;;;7303812;19;20195;-77
2023/05/24 09:47:40;;;;;;;18.55;6.35;;;25.10;75.90;;;;;;7284236;19;20189;-77
2023/05/24 09:50:16;;;;;;;19.02;6.43;;;24.30;77.90;;;;;;7283131;19;20188;-78
2023/05/24 09:52:42;;;;;;;20.33;6.57;;;24.80;78.50;;;;;;7278102;19;20192;-78
2023/05/24 09:55:15;;;;;;;22.27;6.60;;;25.60;75.00;;;;;;7300789;19;20213;-77
2023/05/24 09:57:49;;;;;;;15.07;5.93;;;26.20;73.40;;;;;;7283979;19;20188;-77
2023/05/24 10:00:21;;;;;;;19.10;6.57;;;26.50;72.40;;;;;;7262162;19;20222;-78
2023/05/24 10:03:02;;;;;;;21.02;6.45;;;27.20;72.00;;;;;;7285281;19;20197;-77
2023/05/24 10:05:29;;;;;;;18.38;6.53;;;26.90;72.80;;;;;;7284904;19;20273;-77
2023/05/24 10:08:00;;;;;;;23.45;7.60;;;25.50;72.30;;;;;;7280957;19;20188;-77
2023/05/24 10:10:30;;;;;;;21.83;7.57;;;24.70;75.00;;;;;;7284219;19;20201;-78
2023/05/24 10:12:58;;;;;;;22.15;6.88;;;24.60;77.70;;;;;;7284163;19;20197;-77
2023/05/24 10:15:24;;;;;;;22.77;7.20;;;24.10;78.00;;;;;;7284462;19;20193;-78
2023/05/24 10:17:54;;;;;;;23.00;6.60;;;23.80;76.80;;;;;;7284506;19;20204;-77
2023/05/24 10:20:22;;;;;;;14.70;5.40;;;23.40;78.00;;;;;;7283738;19;20196;-77
2023/05/24 10:23:00;;;;;;;19.20;6.50;;;23.60;79.90;;;;;;7285517;19;20185;-77
2023/05/24 10:25:28;;;;;;;20.77;6.57;;;23.90;77.60;;;;;;7280885;19;20200;-77
2023/05/24 10:27:57;;;;;;;15.60;6.10;;;25.20;78.30;;;;;;7284708;19;20188;-77
2023/05/24 10:30:22;;;;;;;17.95;5.90;;;25.60;75.00;;;;;;7283860;19;20192;-77
2023/05/24 10:32:51;;;;;;;16.87;5.70;;;25.20;72.70;;;;;;7283785;19;20189;-77
2023/05/24 10:35:19;;;;;;;16.73;4.63;;;24.30;76.70;;;;;;7284781;19;20226;-75
2023/05/24 10:37:48;;;;;;;16.73;4.67;;;24.30;77.60;;;;;;7290963;19;20224;-77
2023/05/24 10:40:25;;;;;;;20.13;5.67;;;25.20;78.50;;;;;;7285353;19;20189;-77
2023/05/24 10:42:53;;;;;;;17.95;5.07;;;25.40;75.90;;;;;;7284015;19;20251;-77
2023/05/24 10:45:35;;;;;;;14.90;4.65;;;24.80;74.80;;;;;;7284788;19;20968;-78
2023/05/24 10:48:08;;;;;;;16.73;5.30;;;25.10;76.80;;;;;;7282822;19;20196;-77
2023/05/24 10:50:33;;;;;;;14.38;4.25;;;26.80;75.40;;;;;;7282208;19;20181;-77
2023/05/24 10:53:21;;;;;;;15.95;5.28;;;27.60;73.30;;;;;;7280998;19;20724;-77
2023/05/24 10:55:57;;;;;;;13.88;4.63;;;28.80;70.30;;;;;;7179494;19;2004627;-77
2023/05/24 10:58:54;;;;;;;12.68;4.22;;;29.40;65.50;;;;;;7281096;19;20184;-77
2023/05/24 11:01:26;;;;;;;14.00;4.57;;;28.30;68.40;;;;;;7179177;19;2004482;-78
2023/05/24 11:04:04;;;;;;;15.15;4.75;;;29.10;68.00;;;;;;7282093;19;20193;-77
2023/05/24 11:06:49;;;;;;;12.27;4.35;;;29.30;65.70;;;;;;7282920;19;20256;-78
2023/05/24 11:09:21;;;;;;;15.40;5.05;;;28.00;67.20;;;;;;7181290;19;2005057;-78
2023/05/24 11:11:53;;;;;;;18.50;4.95;;;27.20;71.00;;;;;;7282397;19;20304;-77
2023/05/24 11:14:32;;;;;;;17.15;4.80;;;26.30;72.00;;;;;;7281531;19;20181;-77
2023/05/24 11:17:01;;;;;;;19.02;5.47;;;25.40;74.50;;;;;;7280123;19;20185;-77
2023/05/24 11:19:35;;;;;;;17.50;4.60;;;24.20;76.40;;;;;;7282494;19;20209;-77
2023/05/24 11:22:07;;;;;;;18.02;4.47;;;24.10;77.80;;;;;;7284500;19;20425;-78
2023/05/24 11:24:34;;;;;;;15.57;4.30;;;24.10;79.30;;;;;;7283661;19;20183;-78
2023/05/24 11:27:04;;;;;;;15.57;4.70;;;24.80;77.90;;;;;;7277756;19;20642;-78
2023/05/24 11:29:31;;;;;;;17.20;4.55;;;24.80;76.40;;;;;;7280265;19;20193;-77
2023/05/24 11:32:03;;;;;;;13.60;3.83;;;24.60;78.80;;;;;;7282834;19;20189;-78
2023/05/24 11:34:30;;;;;;;15.10;3.92;;;24.50;76.90;;;;;;7281320;19;20291;-78
2023/05/24 11:36:59;;;;;;;17.27;4.30;;;24.00;75.50;;;;;;7282363;19;20202;-78
2023/05/24 11:39:32;;;;;;;16.05;4.05;;;23.20;78.60;;;;;;7281202;19;20181;-78
2023/05/24 11:41:58;;;;;;;17.80;4.35;;;25.30;76.80;;;;;;7280306;19;20220;-78
2023/05/24 11:44:26;;;;;;;14.48;4.03;;;25.90;73.30;;;;;;7281467;19;20293;-78
2023/05/24 11:46:59;;;;;;;17.80;4.97;;;25.90;75.00;;;;;;7280064;19;20185;-78
2023/05/24 11:49:25;;;;;;;15.02;4.43;;;25.90;74.20;;;;;;7282085;19;20199;-78
2023/05/24 11:51:54;;;;;;;12.00;4.07;;;25.90;76.80;;;;;;7280864;19;20205;-78
2023/05/24 11:54:21;;;;;;;12.85;3.42;;;26.30;75.50;;;;;;7278828;19;20192;-77
2023/05/24 11:56:47;;;;;;;11.82;3.67;;;26.30;71.80;;;;;;7281987;19;20331;-78
2023/05/24 11:59:16;;;;;;;17.10;4.07;;;25.60;72.30;;;;;;7295619;19;20216;-78
2023/05/24 12:01:43;;;;;;;12.10;3.83;;;25.40;72.40;;;;;;7299047;19;20201;-78
2023/05/24 12:04:10;;;;;;;13.67;4.40;;;24.60;74.40;;;;;;7303327;19;20198;-78
2023/05/24 12:06:43;;;;;;;14.20;4.40;;;23.70;77.20;;;;;;7281567;19;20640;-78
2023/05/24 12:09:14;;;;;;;19.17;4.30;;;23.00;82.00;;;;;;7282442;19;20257;-78
2023/05/24 12:11:46;;;;;;;16.77;4.00;;;23.10;82.00;;;;;;7281262;19;20211;-77
2023/05/24 12:14:13;;;;;;;16.47;4.30;;;22.70;81.80;;;;;;7275776;19;20260;-78
2023/05/24 12:16:41;;;;;;;16.13;3.87;;;22.70;82.40;;;;;;7303925;19;20184;-78
2023/05/24 12:19:07;;;;;;;13.23;3.53;;;22.70;83.70;;;;;;7277301;19;20205;-76
2023/05/24 12:21:35;;;;;;;12.13;3.20;;;23.00;82.30;;;;;;7278060;19;20186;-77
2023/05/24 12:24:08;;;;;;;15.23;4.27;;;23.10;82.50;;;;;;7280372;19;20250;-76
2023/05/24 12:26:41;;;;;;;20.53;4.00;;;23.30;83.30;;;;;;7278067;19;20212;-77
2023/05/24 12:29:10;;;;;;;11.40;3.60;;;23.30;83.00;;;;;;7280149;19;20185;-77
2023/05/24 12:31:38;;;;;;;18.07;3.70;;;23.30;81.70;;;;;;7279599;19;20617;-77
2023/05/24 12:34:05;;;;;;;11.93;3.47;;;23.10;83.00;;;;;;7279162;19;20193;-77
2023/05/24 12:36:32;;;;;;;15.80;3.87;;;22.80;83.20;;;;;;7279889;19;20414;-77
2023/05/24 12:38:58;;;;;;;9.80;3.37;;;22.40;83.90;;;;;;7278399;19;20192;-76
2023/05/24 12:41:24;;;;;;;16.83;3.50;;;21.70;85.80;;;;;;7279866;19;20181;-76
2023/05/24 12:43:51;;;;;;;13.83;3.67;;;21.90;87.10;;;;;;7277748;19;20192;-76